Reynolds Plantation, Georgia
Current Conditions -  °F | °C
As of 10:15 AM on Wednesday 26 Nov 2014 (Local Time) from K3J7 Reporting Station
Clear Clear  
Wind Chill: 50°   Ceiling: Unl
Heat Index: 50°   Visibility: 10mi
Dew Point: 45°   Wind: 6mph
Humidity: 82%   Direction: 240°WSW
Pressure: 30.02"   Gusts: NA
Location:  33.5492°N, 83.1798°W
Report Text: K3J7 261515Z AUTO 24005KT 10SM CLR 10/07 A3002 RMK AO2
Loading
Personal Weather Stations






























Interactive Weather Map New forecast layout! Learn more

10-Day Weather Forecast

Advertisements
Track Severe Weather on mobile